sensor_id;sensor_type;location;lat;lon;timestamp;pressure;altitude;pressure_sealevel;temperature;humidity
68376;BME280;55318;52.068;5.188;2024-02-26T00:00:55;100005.0;;;7.79;89.64
68376;BME280;55318;52.068;5.188;2024-02-26T00:02:31;100007.0;;;7.76;90.16
68376;BME280;55318;52.068;5.188;2024-02-26T00:04:07;100006.0;;;7.7;89.86
68376;BME280;55318;52.068;5.188;2024-02-26T00:07:21;100007.0;;;7.75;89.6
68376;BME280;55318;52.068;5.188;2024-02-26T00:08:57;100008.0;;;7.63;90.08
68376;BME280;55318;52.068;5.188;2024-02-26T00:10:34;100010.0;;;7.71;89.71
68376;BME280;55318;52.068;5.188;2024-02-26T00:13:49;100009.0;;;7.78;89.3
68376;BME280;55318;52.068;5.188;2024-02-26T00:15:25;100006.0;;;7.74;89.28
68376;BME280;55318;52.068;5.188;2024-02-26T00:17:02;100013.0;;;7.69;89.11
68376;BME280;55318;52.068;5.188;2024-02-26T00:18:39;100013.0;;;7.6;89.61
68376;BME280;55318;52.068;5.188;2024-02-26T00:21:51;100011.0;;;7.59;89.92
68376;BME280;55318;52.068;5.188;2024-02-26T00:23:27;100017.0;;;7.68;89.76
68376;BME280;55318;52.068;5.188;2024-02-26T00:25:05;100015.0;;;7.62;89.76
68376;BME280;55318;52.068;5.188;2024-02-26T00:28:18;100015.0;;;7.48;90.79
68376;BME280;55318;52.068;5.188;2024-02-26T00:29:56;100018.0;;;7.63;90.07
68376;BME280;55318;52.068;5.188;2024-02-26T00:31:33;100014.0;;;7.57;90.14
68376;BME280;55318;52.068;5.188;2024-02-26T00:34:46;100016.0;;;7.44;90.39
68376;BME280;55318;52.068;5.188;2024-02-26T00:36:22;100016.0;;;7.37;90.85
68376;BME280;55318;52.068;5.188;2024-02-26T00:37:58;100020.0;;;7.37;91.05
68376;BME280;55318;52.068;5.188;2024-02-26T00:39:35;100017.0;;;7.49;90.78
68376;BME280;55318;52.068;5.188;2024-02-26T00:42:47;100020.0;;;7.45;90.76
68376;BME280;55318;52.068;5.188;2024-02-26T00:44:23;100015.0;;;7.38;91.21
68376;BME280;55318;52.068;5.188;2024-02-26T00:46:00;100018.0;;;7.36;91.21
68376;BME280;55318;52.068;5.188;2024-02-26T00:49:12;100017.0;;;7.39;91.16
68376;BME280;55318;52.068;5.188;2024-02-26T00:50:49;100018.0;;;7.49;90.47
68376;BME280;55318;52.068;5.188;2024-02-26T00:52:25;100014.0;;;7.44;90.7
68376;BME280;55318;52.068;5.188;2024-02-26T00:55:38;100013.0;;;7.48;90.75
68376;BME280;55318;52.068;5.188;2024-02-26T00:57:14;100016.0;;;7.28;91.41
68376;BME280;55318;52.068;5.188;2024-02-26T00:58:50;100017.0;;;7.33;91.46
68376;BME280;55318;52.068;5.188;2024-02-26T01:00:26;100021.0;;;7.44;91.36
68376;BME280;55318;52.068;5.188;2024-02-26T01:03:38;100017.0;;;7.46;90.81
68376;BME280;55318;52.068;5.188;2024-02-26T01:05:14;100013.0;;;7.49;90.74
68376;BME280;55318;52.068;5.188;2024-02-26T01:06:50;100016.0;;;7.45;91.08
68376;BME280;55318;52.068;5.188;2024-02-26T01:10:08;100014.0;;;7.39;90.87
68376;BME280;55318;52.068;5.188;2024-02-26T01:11:45;100013.0;;;7.56;90.5
68376;BME280;55318;52.068;5.188;2024-02-26T01:13:21;100009.0;;;7.48;90.58
68376;BME280;55318;52.068;5.188;2024-02-26T01:16:33;100013.0;;;7.68;90.37
68376;BME280;55318;52.068;5.188;2024-02-26T01:18:09;100011.0;;;7.53;90.49
68376;BME280;55318;52.068;5.188;2024-02-26T01:19:47;100009.0;;;7.41;90.55
68376;BME280;55318;52.068;5.188;2024-02-26T01:21:23;100010.0;;;7.54;89.89
68376;BME280;55318;52.068;5.188;2024-02-26T01:24:37;100006.0;;;7.51;89.76
68376;BME280;55318;52.068;5.188;2024-02-26T01:26:13;100005.0;;;7.43;89.81
68376;BME280;55318;52.068;5.188;2024-02-26T01:27:49;100005.0;;;7.59;89.71
68376;BME280;55318;52.068;5.188;2024-02-26T01:31:02;100005.0;;;7.77;88.83
68376;BME280;55318;52.068;5.188;2024-02-26T01:32:39;100001.0;;;7.7;88.58
68376;BME280;55318;52.068;5.188;2024-02-26T01:34:15;100008.0;;;7.59;88.76
68376;BME280;55318;52.068;5.188;2024-02-26T01:37:29;100002.0;;;7.69;88.47
68376;BME280;55318;52.068;5.188;2024-02-26T01:39:05;100002.0;;;7.38;89.86
68376;BME280;55318;52.068;5.188;2024-02-26T01:40:41;100003.0;;;7.48;89.85
68376;BME280;55318;52.068;5.188;2024-02-26T01:42:17;100010.0;;;7.57;88.88
68376;BME280;55318;52.068;5.188;2024-02-26T01:45:32;100002.0;;;7.47;89.43
68376;BME280;55318;52.068;5.188;2024-02-26T01:47:11;99999.0;;;7.63;88.74
68376;BME280;55318;52.068;5.188;2024-02-26T01:48:47;99996.0;;;7.48;88.8
68376;BME280;55318;52.068;5.188;2024-02-26T01:52:03;100006.0;;;7.7;88.37
68376;BME280;55318;52.068;5.188;2024-02-26T01:53:39;100002.0;;;7.6;88.71
68376;BME280;55318;52.068;5.188;2024-02-26T01:55:17;100012.0;;;7.58;88.32
68376;BME280;55318;52.068;5.188;2024-02-26T01:56:54;100017.0;;;7.52;88.95
68376;BME280;55318;52.068;5.188;2024-02-26T02:00:09;100013.0;;;7.63;88.37
68376;BME280;55318;52.068;5.188;2024-02-26T02:01:48;100018.0;;;7.65;88.2
68376;BME280;55318;52.068;5.188;2024-02-26T02:03:31;100014.0;;;7.72;88.3
68376;BME280;55318;52.068;5.188;2024-02-26T02:06:45;100015.0;;;7.79;87.84
68376;BME280;55318;52.068;5.188;2024-02-26T02:08:22;100018.0;;;7.59;88.16
68376;BME280;55318;52.068;5.188;2024-02-26T02:10:00;100018.0;;;7.63;88.37
68376;BME280;55318;52.068;5.188;2024-02-26T02:11:36;100026.0;;;7.41;89.26
68376;BME280;55318;52.068;5.188;2024-02-26T02:14:49;100028.0;;;7.62;88.31
68376;BME280;55318;52.068;5.188;2024-02-26T02:16:25;100033.0;;;7.42;88.45
68376;BME280;55318;52.068;5.188;2024-02-26T02:18:01;100036.0;;;7.48;88.42
68376;BME280;55318;52.068;5.188;2024-02-26T02:21:13;100035.0;;;7.56;87.82
68376;BME280;55318;52.068;5.188;2024-02-26T02:22:49;100033.0;;;7.43;88.79
68376;BME280;55318;52.068;5.188;2024-02-26T02:24:26;100042.0;;;7.41;88.75
68376;BME280;55318;52.068;5.188;2024-02-26T02:27:39;100044.0;;;7.47;88.78
68376;BME280;55318;52.068;5.188;2024-02-26T02:29:16;100038.0;;;7.43;88.89
68376;BME280;55318;52.068;5.188;2024-02-26T02:30:52;100037.0;;;7.58;88.68
68376;BME280;55318;52.068;5.188;2024-02-26T02:32:29;100037.0;;;7.52;88.68
68376;BME280;55318;52.068;5.188;2024-02-26T02:35:44;100041.0;;;7.61;88.36
68376;BME280;55318;52.068;5.188;2024-02-26T02:37:20;100043.0;;;7.72;88.02
68376;BME280;55318;52.068;5.188;2024-02-26T02:38:57;100049.0;;;7.61;88.56
68376;BME280;55318;52.068;5.188;2024-02-26T02:42:11;100051.0;;;7.46;88.73
68376;BME280;55318;52.068;5.188;2024-02-26T02:43:47;100055.0;;;7.77;88.15
68376;BME280;55318;52.068;5.188;2024-02-26T02:45:23;100057.0;;;7.62;87.72
68376;BME280;55318;52.068;5.188;2024-02-26T02:48:35;100063.0;;;7.59;87.79
68376;BME280;55318;52.068;5.188;2024-02-26T02:50:11;100064.0;;;7.57;88.17
68376;BME280;55318;52.068;5.188;2024-02-26T02:51:51;100065.0;;;7.7;87.89
68376;BME280;55318;52.068;5.188;2024-02-26T02:53:28;100067.0;;;7.62;88.4
68376;BME280;55318;52.068;5.188;2024-02-26T02:56:41;100069.0;;;7.39;88.53
68376;BME280;55318;52.068;5.188;2024-02-26T02:58:18;100070.0;;;7.68;88.62
68376;BME280;55318;52.068;5.188;2024-02-26T02:59:54;100068.0;;;7.7;87.85
68376;BME280;55318;52.068;5.188;2024-02-26T03:03:06;100078.0;;;7.64;88.11
68376;BME280;55318;52.068;5.188;2024-02-26T03:04:42;100077.0;;;7.61;87.98
68376;BME280;55318;52.068;5.188;2024-02-26T03:06:18;100093.0;;;7.59;87.65
68376;BME280;55318;52.068;5.188;2024-02-26T03:09:30;100097.0;;;7.41;88.72
68376;BME280;55318;52.068;5.188;2024-02-26T03:11:06;100102.0;;;7.6;88.03
68376;BME280;55318;52.068;5.188;2024-02-26T03:12:42;100103.0;;;7.72;87.22
68376;BME280;55318;52.068;5.188;2024-02-26T03:14:19;100103.0;;;7.6;87.34
68376;BME280;55318;52.068;5.188;2024-02-26T03:17:31;100099.0;;;7.34;88.77
68376;BME280;55318;52.068;5.188;2024-02-26T03:19:07;100105.0;;;7.62;88.2
68376;BME280;55318;52.068;5.188;2024-02-26T03:20:43;100098.0;;;7.68;87.8
68376;BME280;55318;52.068;5.188;2024-02-26T03:23:55;100101.0;;;7.68;87.85
68376;BME280;55318;52.068;5.188;2024-02-26T03:25:31;100106.0;;;7.64;87.76
68376;BME280;55318;52.068;5.188;2024-02-26T03:27:07;100110.0;;;7.41;88.01
68376;BME280;55318;52.068;5.188;2024-02-26T03:30:20;100115.0;;;7.25;89.02
68376;BME280;55318;52.068;5.188;2024-02-26T03:31:57;100109.0;;;7.58;88.65
68376;BME280;55318;52.068;5.188;2024-02-26T03:33:34;100113.0;;;7.5;88.32
68376;BME280;55318;52.068;5.188;2024-02-26T03:36:47;100116.0;;;7.41;88.57
68376;BME280;55318;52.068;5.188;2024-02-26T03:38:23;100116.0;;;7.38;88.26
68376;BME280;55318;52.068;5.188;2024-02-26T03:40:00;100119.0;;;7.42;88.59
68376;BME280;55318;52.068;5.188;2024-02-26T03:41:36;100120.0;;;7.4;88.54
68376;BME280;55318;52.068;5.188;2024-02-26T03:44:48;100122.0;;;7.47;88.7
68376;BME280;55318;52.068;5.188;2024-02-26T03:46:24;100118.0;;;7.37;88.73
68376;BME280;55318;52.068;5.188;2024-02-26T03:48:01;100126.0;;;7.28;89.12
68376;BME280;55318;52.068;5.188;2024-02-26T03:51:14;100120.0;;;7.34;88.95
68376;BME280;55318;52.068;5.188;2024-02-26T03:52:51;100118.0;;;7.39;88.69
68376;BME280;55318;52.068;5.188;2024-02-26T03:54:28;100127.0;;;7.34;89.23
68376;BME280;55318;52.068;5.188;2024-02-26T03:57:42;100123.0;;;7.47;88.8
68376;BME280;55318;52.068;5.188;2024-02-26T03:59:19;100126.0;;;7.41;88.91
68376;BME280;55318;52.068;5.188;2024-02-26T04:00:55;100126.0;;;7.55;88.56
68376;BME280;55318;52.068;5.188;2024-02-26T04:02:31;100123.0;;;7.69;87.87
68376;BME280;55318;52.068;5.188;2024-02-26T04:05:44;100130.0;;;7.67;88.02
68376;BME280;55318;52.068;5.188;2024-02-26T04:07:21;100125.0;;;7.64;87.57
68376;BME280;55318;52.068;5.188;2024-02-26T04:08:57;100130.0;;;7.69;87.82
68376;BME280;55318;52.068;5.188;2024-02-26T04:12:09;100131.0;;;7.53;87.98
68376;BME280;55318;52.068;5.188;2024-02-26T04:13:46;100134.0;;;7.71;87.77
68376;BME280;55318;52.068;5.188;2024-02-26T04:15:22;100134.0;;;7.5;88.0
68376;BME280;55318;52.068;5.188;2024-02-26T04:18:34;100134.0;;;7.68;87.46
68376;BME280;55318;52.068;5.188;2024-02-26T04:20:14;100137.0;;;7.54;88.05
68376;BME280;55318;52.068;5.188;2024-02-26T04:21:51;100141.0;;;7.37;88.32
68376;BME280;55318;52.068;5.188;2024-02-26T04:23:28;100143.0;;;7.58;87.83
68376;BME280;55318;52.068;5.188;2024-02-26T04:26:41;100143.0;;;7.38;88.47
68376;BME280;55318;52.068;5.188;2024-02-26T04:28:17;100135.0;;;7.64;88.15
68376;BME280;55318;52.068;5.188;2024-02-26T04:29:53;100142.0;;;7.52;88.07
68376;BME280;55318;52.068;5.188;2024-02-26T04:33:06;100138.0;;;7.69;87.94
68376;BME280;55318;52.068;5.188;2024-02-26T04:34:42;100144.0;;;7.25;88.71
68376;BME280;55318;52.068;5.188;2024-02-26T04:36:18;100142.0;;;7.55;88.13
68376;BME280;55318;52.068;5.188;2024-02-26T04:39:31;100145.0;;;7.17;88.98
68376;BME280;55318;52.068;5.188;2024-02-26T04:41:09;100149.0;;;7.4;88.79
68376;BME280;55318;52.068;5.188;2024-02-26T04:42:46;100148.0;;;7.33;88.51
68376;BME280;55318;52.068;5.188;2024-02-26T04:44:22;100147.0;;;7.23;88.84
68376;BME280;55318;52.068;5.188;2024-02-26T04:47:35;100150.0;;;7.15;89.63
68376;BME280;55318;52.068;5.188;2024-02-26T04:49:11;100147.0;;;7.09;89.2
68376;BME280;55318;52.068;5.188;2024-02-26T04:50:47;100148.0;;;7.23;89.55
68376;BME280;55318;52.068;5.188;2024-02-26T04:53:59;100155.0;;;7.17;88.94
68376;BME280;55318;52.068;5.188;2024-02-26T04:55:36;100162.0;;;7.01;89.55
68376;BME280;55318;52.068;5.188;2024-02-26T04:57:12;100160.0;;;7.21;89.15
68376;BME280;55318;52.068;5.188;2024-02-26T05:00:26;100155.0;;;7.15;89.54
68376;BME280;55318;52.068;5.188;2024-02-26T05:02:03;100162.0;;;7.15;89.45
68376;BME280;55318;52.068;5.188;2024-02-26T05:03:39;100167.0;;;7.19;89.8
68376;BME280;55318;52.068;5.188;2024-02-26T05:05:15;100165.0;;;7.27;89.21
68376;BME280;55318;52.068;5.188;2024-02-26T05:08:31;100169.0;;;7.28;89.71
68376;BME280;55318;52.068;5.188;2024-02-26T05:10:08;100171.0;;;7.01;90.32
68376;BME280;55318;52.068;5.188;2024-02-26T05:11:44;100170.0;;;7.31;90.15
68376;BME280;55318;52.068;5.188;2024-02-26T05:14:58;100172.0;;;7.11;90.25
68376;BME280;55318;52.068;5.188;2024-02-26T05:16:35;100172.0;;;7.09;90.82
68376;BME280;55318;52.068;5.188;2024-02-26T05:18:11;100169.0;;;7.14;90.97
68376;BME280;55318;52.068;5.188;2024-02-26T05:21:23;100167.0;;;7.3;90.75
68376;BME280;55318;52.068;5.188;2024-02-26T05:22:59;100177.0;;;7.38;90.28
68376;BME280;55318;52.068;5.188;2024-02-26T05:24:37;100174.0;;;7.43;91.03
68376;BME280;55318;52.068;5.188;2024-02-26T05:26:19;100170.0;;;7.29;91.15
68376;BME280;55318;52.068;5.188;2024-02-26T05:29:32;100171.0;;;7.32;91.41
68376;BME280;55318;52.068;5.188;2024-02-26T05:31:12;100173.0;;;7.07;91.88
68376;BME280;55318;52.068;5.188;2024-02-26T05:32:48;100181.0;;;7.11;92.07
68376;BME280;55318;52.068;5.188;2024-02-26T05:36:00;100188.0;;;7.15;91.92
68376;BME280;55318;52.068;5.188;2024-02-26T05:37:37;100182.0;;;7.11;92.34
68376;BME280;55318;52.068;5.188;2024-02-26T05:39:14;100193.0;;;7.22;92.44
68376;BME280;55318;52.068;5.188;2024-02-26T05:40:50;100187.0;;;7.12;92.02
68376;BME280;55318;52.068;5.188;2024-02-26T05:44:03;100187.0;;;7.11;92.41
68376;BME280;55318;52.068;5.188;2024-02-26T05:45:40;100186.0;;;7.19;92.26
68376;BME280;55318;52.068;5.188;2024-02-26T05:47:17;100195.0;;;7.07;92.31
68376;BME280;55318;52.068;5.188;2024-02-26T05:50:30;100195.0;;;6.96;92.87
68376;BME280;55318;52.068;5.188;2024-02-26T05:52:07;100196.0;;;7.22;92.8
68376;BME280;55318;52.068;5.188;2024-02-26T05:53:44;100197.0;;;7.07;92.84
68376;BME280;55318;52.068;5.188;2024-02-26T05:56:58;100205.0;;;7.08;92.33
68376;BME280;55318;52.068;5.188;2024-02-26T05:58:35;100208.0;;;7.13;92.47
68376;BME280;55318;52.068;5.188;2024-02-26T06:00:12;100207.0;;;7.04;92.72
68376;BME280;55318;52.068;5.188;2024-02-26T06:01:49;100209.0;;;6.97;92.51
68376;BME280;55318;52.068;5.188;2024-02-26T06:05:01;100221.0;;;6.89;92.85
68376;BME280;55318;52.068;5.188;2024-02-26T06:06:38;100220.0;;;7.1;92.61
68376;BME280;55318;52.068;5.188;2024-02-26T06:08:15;100213.0;;;7.06;93.13
68376;BME280;55318;52.068;5.188;2024-02-26T06:11:30;100212.0;;;7.13;93.34
68376;BME280;55318;52.068;5.188;2024-02-26T06:13:08;100217.0;;;7.06;92.88
68376;BME280;55318;52.068;5.188;2024-02-26T06:14:45;100225.0;;;7.17;92.01
68376;BME280;55318;52.068;5.188;2024-02-26T06:16:21;100224.0;;;7.05;92.28
68376;BME280;55318;52.068;5.188;2024-02-26T06:19:35;100232.0;;;7.08;92.88
68376;BME280;55318;52.068;5.188;2024-02-26T06:21:12;100231.0;;;6.88;93.36
68376;BME280;55318;52.068;5.188;2024-02-26T06:22:50;100239.0;;;7.02;92.8
68376;BME280;55318;52.068;5.188;2024-02-26T06:26:04;100233.0;;;6.81;94.06
68376;BME280;55318;52.068;5.188;2024-02-26T06:27:41;100236.0;;;7.15;93.28
68376;BME280;55318;52.068;5.188;2024-02-26T06:29:18;100236.0;;;7.0;93.12
68376;BME280;55318;52.068;5.188;2024-02-26T06:32:32;100240.0;;;7.14;93.13
68376;BME280;55318;52.068;5.188;2024-02-26T06:34:09;100244.0;;;7.01;93.16
68376;BME280;55318;52.068;5.188;2024-02-26T06:35:46;100253.0;;;6.93;93.94
68376;BME280;55318;52.068;5.188;2024-02-26T06:37:23;100248.0;;;7.1;93.63
68376;BME280;55318;52.068;5.188;2024-02-26T06:40:37;100258.0;;;7.18;93.0
68376;BME280;55318;52.068;5.188;2024-02-26T06:42:14;100251.0;;;6.91;93.96
68376;BME280;55318;52.068;5.188;2024-02-26T06:43:50;100258.0;;;7.01;93.92
68376;BME280;55318;52.068;5.188;2024-02-26T06:47:04;100264.0;;;6.96;94.2
68376;BME280;55318;52.068;5.188;2024-02-26T06:48:41;100269.0;;;6.96;94.18
68376;BME280;55318;52.068;5.188;2024-02-26T06:50:17;100269.0;;;7.03;94.13
68376;BME280;55318;52.068;5.188;2024-02-26T06:51:54;100269.0;;;6.9;94.73
68376;BME280;55318;52.068;5.188;2024-02-26T06:55:08;100266.0;;;6.87;95.1
68376;BME280;55318;52.068;5.188;2024-02-26T06:56:45;100267.0;;;6.96;95.2
68376;BME280;55318;52.068;5.188;2024-02-26T06:58:22;100271.0;;;6.84;95.65
68376;BME280;55318;52.068;5.188;2024-02-26T07:01:35;100280.0;;;6.87;96.09
68376;BME280;55318;52.068;5.188;2024-02-26T07:04:50;100280.0;;;6.82;96.76
68376;BME280;55318;52.068;5.188;2024-02-26T07:08:05;100281.0;;;7.08;96.27
68376;BME280;55318;52.068;5.188;2024-02-26T07:09:42;100287.0;;;7.08;96.39
68376;BME280;55318;52.068;5.188;2024-02-26T07:11:19;100286.0;;;6.97;96.64
68376;BME280;55318;52.068;5.188;2024-02-26T07:12:56;100292.0;;;6.95;97.0
68376;BME280;55318;52.068;5.188;2024-02-26T07:16:09;100296.0;;;6.94;97.19
68376;BME280;55318;52.068;5.188;2024-02-26T07:17:57;100302.0;;;6.79;98.04
68376;BME280;55318;52.068;5.188;2024-02-26T07:19:34;100305.0;;;6.71;98.6
68376;BME280;55318;52.068;5.188;2024-02-26T07:21:11;100307.0;;;6.78;98.91
68376;BME280;55318;52.068;5.188;2024-02-26T07:24:24;100305.0;;;6.7;99.14
68376;BME280;55318;52.068;5.188;2024-02-26T07:26:01;100306.0;;;6.79;99.9
68376;BME280;55318;52.068;5.188;2024-02-26T07:27:42;100312.0;;;6.71;100.0
68376;BME280;55318;52.068;5.188;2024-02-26T07:30:55;100307.0;;;6.68;99.91
68376;BME280;55318;52.068;5.188;2024-02-26T07:32:32;100314.0;;;6.67;100.0
68376;BME280;55318;52.068;5.188;2024-02-26T07:34:09;100309.0;;;6.52;100.0
68376;BME280;55318;52.068;5.188;2024-02-26T07:35:47;100313.0;;;6.57;100.0
68376;BME280;55318;52.068;5.188;2024-02-26T07:39:01;100312.0;;;6.58;100.0
68376;BME280;55318;52.068;5.188;2024-02-26T07:40:38;100315.0;;;6.39;100.0
68376;BME280;55318;52.068;5.188;2024-02-26T07:42:15;100320.0;;;6.41;100.0
68376;BME280;55318;52.068;5.188;2024-02-26T07:45:28;100325.0;;;6.41;100.0
68376;BME280;55318;52.068;5.188;2024-02-26T07:47:04;100330.0;;;6.43;100.0
68376;BME280;55318;52.068;5.188;2024-02-26T07:48:41;100330.0;;;6.47;100.0
68376;BME280;55318;52.068;5.188;2024-02-26T07:51:54;100334.0;;;6.49;100.0
68376;BME280;55318;52.068;5.188;2024-02-26T07:53:31;100336.0;;;6.54;100.0
68376;BME280;55318;52.068;5.188;2024-02-26T07:55:08;100331.0;;;6.59;100.0
68376;BME280;55318;52.068;5.188;2024-02-26T07:56:45;100344.0;;;6.64;100.0
68376;BME280;55318;52.068;5.188;2024-02-26T08:00:00;100350.0;;;6.7;100.0
68376;BME280;55318;52.068;5.188;2024-02-26T08:01:37;100351.0;;;6.73;100.0
68376;BME280;55318;52.068;5.188;2024-02-26T08:03:13;100355.0;;;6.58;100.0
68376;BME280;55318;52.068;5.188;2024-02-26T08:06:26;100358.0;;;6.73;100.0
68376;BME280;55318;52.068;5.188;2024-02-26T08:08:04;100359.0;;;6.63;100.0
68376;BME280;55318;52.068;5.188;2024-02-26T08:09:40;100368.0;;;6.61;100.0
68376;BME280;55318;52.068;5.188;2024-02-26T08:12:55;100374.0;;;6.64;100.0
68376;BME280;55318;52.068;5.188;2024-02-26T08:14:31;100380.0;;;6.71;100.0
68376;BME280;55318;52.068;5.188;2024-02-26T08:16:08;100376.0;;;6.39;100.0
68376;BME280;55318;52.068;5.188;2024-02-26T08:17:45;100382.0;;;6.5;100.0
68376;BME280;55318;52.068;5.188;2024-02-26T08:20:59;100386.0;;;6.63;100.0
68376;BME280;55318;52.068;5.188;2024-02-26T08:22:36;100382.0;;;6.83;100.0
68376;BME280;55318;52.068;5.188;2024-02-26T08:24:13;100382.0;;;6.7;100.0
68376;BME280;55318;52.068;5.188;2024-02-26T08:27:28;100381.0;;;6.79;100.0
68376;BME280;55318;52.068;5.188;2024-02-26T08:29:04;100381.0;;;6.74;100.0
68376;BME280;55318;52.068;5.188;2024-02-26T08:30:41;100391.0;;;6.54;100.0
68376;BME280;55318;52.068;5.188;2024-02-26T08:32:18;100380.0;;;6.66;100.0
68376;BME280;55318;52.068;5.188;2024-02-26T08:35:31;100397.0;;;6.9;100.0
68376;BME280;55318;52.068;5.188;2024-02-26T08:37:07;100401.0;;;6.63;100.0
68376;BME280;55318;52.068;5.188;2024-02-26T08:38:44;100402.0;;;6.59;100.0
68376;BME280;55318;52.068;5.188;2024-02-26T08:41:58;100394.0;;;6.81;100.0
68376;BME280;55318;52.068;5.188;2024-02-26T08:43:35;100405.0;;;6.6;100.0
68376;BME280;55318;52.068;5.188;2024-02-26T08:45:11;100412.0;;;6.47;100.0
68376;BME280;55318;52.068;5.188;2024-02-26T08:48:24;100413.0;;;6.65;100.0
68376;BME280;55318;52.068;5.188;2024-02-26T08:50:02;100414.0;;;6.71;100.0
68376;BME280;55318;52.068;5.188;2024-02-26T08:51:41;100413.0;;;6.64;100.0
68376;BME280;55318;52.068;5.188;2024-02-26T08:53:18;100413.0;;;6.84;100.0
68376;BME280;55318;52.068;5.188;2024-02-26T08:56:32;100417.0;;;6.81;100.0
68376;BME280;55318;52.068;5.188;2024-02-26T08:58:09;100419.0;;;6.66;100.0
68376;BME280;55318;52.068;5.188;2024-02-26T08:59:46;100420.0;;;6.73;100.0
68376;BME280;55318;52.068;5.188;2024-02-26T09:03:00;100425.0;;;6.8;100.0
68376;BME280;55318;52.068;5.188;2024-02-26T09:04:37;100436.0;;;6.54;100.0
68376;BME280;55318;52.068;5.188;2024-02-26T09:06:14;100436.0;;;6.82;100.0
68376;BME280;55318;52.068;5.188;2024-02-26T09:07:51;100431.0;;;6.66;100.0
68376;BME280;55318;52.068;5.188;2024-02-26T09:11:04;100426.0;;;6.74;100.0
68376;BME280;55318;52.068;5.188;2024-02-26T09:12:40;100443.0;;;6.51;100.0
68376;BME280;55318;52.068;5.188;2024-02-26T09:14:18;100445.0;;;6.6;100.0
68376;BME280;55318;52.068;5.188;2024-02-26T09:17:32;100441.0;;;6.4;100.0
68376;BME280;55318;52.068;5.188;2024-02-26T09:19:09;100440.0;;;6.51;100.0
68376;BME280;55318;52.068;5.188;2024-02-26T09:20:46;100448.0;;;6.57;100.0
68376;BME280;55318;52.068;5.188;2024-02-26T09:24:00;100449.0;;;6.63;100.0
68376;BME280;55318;52.068;5.188;2024-02-26T09:25:38;100461.0;;;6.64;100.0
68376;BME280;55318;52.068;5.188;2024-02-26T09:27:15;100459.0;;;6.29;100.0
68376;BME280;55318;52.068;5.188;2024-02-26T09:28:52;100458.0;;;6.39;100.0
68376;BME280;55318;52.068;5.188;2024-02-26T09:32:06;100464.0;;;6.33;100.0
68376;BME280;55318;52.068;5.188;2024-02-26T09:33:43;100466.0;;;6.48;100.0
68376;BME280;55318;52.068;5.188;2024-02-26T09:35:20;100466.0;;;6.63;100.0
68376;BME280;55318;52.068;5.188;2024-02-26T09:38:35;100464.0;;;6.53;100.0
68376;BME280;55318;52.068;5.188;2024-02-26T09:40:12;100468.0;;;6.71;100.0
68376;BME280;55318;52.068;5.188;2024-02-26T09:41:48;100473.0;;;6.44;100.0
68376;BME280;55318;52.068;5.188;2024-02-26T09:43:27;100473.0;;;6.64;100.0
68376;BME280;55318;52.068;5.188;2024-02-26T09:46:52;100482.0;;;6.6;100.0
68376;BME280;55318;52.068;5.188;2024-02-26T09:48:30;100480.0;;;6.38;100.0
68376;BME280;55318;52.068;5.188;2024-02-26T09:50:09;100475.0;;;6.52;100.0
68376;BME280;55318;52.068;5.188;2024-02-26T09:51:47;100488.0;;;6.23;100.0
68376;BME280;55318;52.068;5.188;2024-02-26T09:55:05;100492.0;;;6.5;100.0
68376;BME280;55318;52.068;5.188;2024-02-26T09:56:46;100494.0;;;6.44;100.0
68376;BME280;55318;52.068;5.188;2024-02-26T10:01:51;100497.0;;;6.25;100.0
68376;BME280;55318;52.068;5.188;2024-02-26T10:03:34;100498.0;;;6.39;100.0
68376;BME280;55318;52.068;5.188;2024-02-26T10:05:16;100503.0;;;6.42;100.0
68376;BME280;55318;52.068;5.188;2024-02-26T10:06:53;100499.0;;;6.62;100.0
68376;BME280;55318;52.068;5.188;2024-02-26T10:10:09;100514.0;;;6.58;100.0
68376;BME280;55318;52.068;5.188;2024-02-26T10:11:47;100511.0;;;6.46;100.0
68376;BME280;55318;52.068;5.188;2024-02-26T10:13:24;100509.0;;;6.57;100.0
68376;BME280;55318;52.068;5.188;2024-02-26T10:15:01;100519.0;;;6.45;100.0
68376;BME280;55318;52.068;5.188;2024-02-26T10:18:15;100517.0;;;6.4;100.0
68376;BME280;55318;52.068;5.188;2024-02-26T10:19:52;100527.0;;;6.35;100.0
68376;BME280;55318;52.068;5.188;2024-02-26T10:21:29;100526.0;;;6.4;100.0
68376;BME280;55318;52.068;5.188;2024-02-26T10:24:46;100530.0;;;6.42;100.0
68376;BME280;55318;52.068;5.188;2024-02-26T10:26:22;100538.0;;;6.38;100.0
68376;BME280;55318;52.068;5.188;2024-02-26T10:28:00;100533.0;;;6.57;100.0
68376;BME280;55318;52.068;5.188;2024-02-26T10:29:38;100541.0;;;6.65;100.0
68376;BME280;55318;52.068;5.188;2024-02-26T10:32:52;100545.0;;;6.43;100.0
68376;BME280;55318;52.068;5.188;2024-02-26T10:34:29;100546.0;;;6.4;100.0
68376;BME280;55318;52.068;5.188;2024-02-26T10:36:07;100552.0;;;6.58;100.0
68376;BME280;55318;52.068;5.188;2024-02-26T10:39:25;100553.0;;;6.49;100.0
68376;BME280;55318;52.068;5.188;2024-02-26T10:42:39;100563.0;;;6.46;100.0
68376;BME280;55318;52.068;5.188;2024-02-26T10:44:17;100575.0;;;6.5;100.0
68376;BME280;55318;52.068;5.188;2024-02-26T10:47:31;100571.0;;;6.54;100.0
68376;BME280;55318;52.068;5.188;2024-02-26T10:49:13;100577.0;;;6.64;100.0
68376;BME280;55318;52.068;5.188;2024-02-26T10:50:53;100578.0;;;6.66;100.0
68376;BME280;55318;52.068;5.188;2024-02-26T10:52:31;100580.0;;;6.67;100.0
68376;BME280;55318;52.068;5.188;2024-02-26T10:55:54;100589.0;;;6.65;100.0
68376;BME280;55318;52.068;5.188;2024-02-26T10:57:35;100593.0;;;6.87;100.0
68376;BME280;55318;52.068;5.188;2024-02-26T10:59:12;100588.0;;;6.95;100.0
68376;BME280;55318;52.068;5.188;2024-02-26T11:00:50;100596.0;;;7.01;100.0
68376;BME280;55318;52.068;5.188;2024-02-26T11:04:08;100599.0;;;6.91;100.0
68376;BME280;55318;52.068;5.188;2024-02-26T11:05:47;100605.0;;;7.01;100.0
68376;BME280;55318;52.068;5.188;2024-02-26T11:07:24;100605.0;;;6.94;100.0
68376;BME280;55318;52.068;5.188;2024-02-26T11:10:42;100614.0;;;7.0;100.0
68376;BME280;55318;52.068;5.188;2024-02-26T11:12:20;100614.0;;;7.01;100.0
68376;BME280;55318;52.068;5.188;2024-02-26T11:14:03;100613.0;;;7.2;100.0
68376;BME280;55318;52.068;5.188;2024-02-26T11:15:39;100617.0;;;6.92;100.0
68376;BME280;55318;52.068;5.188;2024-02-26T11:18:57;100618.0;;;6.98;100.0
68376;BME280;55318;52.068;5.188;2024-02-26T11:20:34;100622.0;;;7.05;100.0